Time;durP1;ratioP1;P1;durP2;ratioP2;P2;SDS_P1;SDS_P2;PMS_P1;PMS_P2;Temp;Humidity;BMP_temperature;BMP_pressure;BME280_temperature;BME280_humidity;BME280_pressure;Samples;Min_cycle;Max_cycle;Signal;HPM_P1;HPM_P2
2023/03/22 00:02:03;;;;;;;25.77;21.03;;;;;;;6.72;100.00;99875.06;5053437;28;20225;-63
2023/03/22 00:04:28;;;;;;;26.90;21.23;;;;;;;6.78;100.00;99882.47;5061014;28;20233;-65
2023/03/22 00:06:54;;;;;;;26.60;22.77;;;;;;;6.81;100.00;99879.78;5061315;28;20580;-61
2023/03/22 00:09:19;;;;;;;27.97;23.03;;;;;;;6.85;100.00;99868.53;5068993;28;20281;-65
2023/03/22 00:11:49;;;;;;;25.00;21.67;;;;;;;6.82;100.00;99875.50;5074588;28;20226;-63
2023/03/22 00:14:15;;;;;;;26.03;21.67;;;;;;;6.82;100.00;99870.38;5072310;28;20195;-62
2023/03/22 00:16:40;;;;;;;31.57;23.00;;;;;;;6.83;100.00;99861.81;5062502;28;20690;-63
2023/03/22 00:19:05;;;;;;;24.07;21.43;;;;;;;6.88;100.00;99865.81;5073707;28;20212;-62
2023/03/22 00:21:31;;;;;;;30.40;21.97;;;;;;;7.09;100.00;99865.81;5072450;28;20732;-63
2023/03/22 00:23:56;;;;;;;26.23;22.93;;;;;;;7.26;100.00;99867.63;5074737;28;20212;-64
2023/03/22 00:26:21;;;;;;;26.93;21.00;;;;;;;7.33;100.00;99868.16;5068729;28;20622;-71
2023/03/22 00:28:46;;;;;;;25.37;22.50;;;;;;;7.32;100.00;99862.25;5071149;28;20181;-62
2023/03/22 00:31:12;;;;;;;25.80;20.70;;;;;;;7.39;100.00;99860.22;5049321;28;20787;-62
2023/03/22 00:33:37;;;;;;;25.43;21.00;;;;;;;7.43;100.00;99854.09;5076945;28;20207;-63
2023/03/22 00:36:05;;;;;;;26.40;20.67;;;;;;;7.47;100.00;99857.31;5071108;28;20177;-62
2023/03/22 00:38:37;;;;;;;26.27;21.87;;;;;;;7.54;100.00;99856.13;5070984;28;20189;-62
2023/03/22 00:41:20;;;;;;;23.73;20.30;;;;;;;7.49;100.00;99850.41;5068688;28;20265;-63
2023/03/22 00:43:47;;;;;;;25.43;21.23;;;;;;;7.53;100.00;99850.19;5076110;28;20207;-63
2023/03/22 00:46:13;;;;;;;22.63;20.23;;;;;;;7.39;100.00;99843.16;5069438;28;20181;-63
2023/03/22 00:48:39;;;;;;;23.27;20.67;;;;;;;7.23;100.00;99849.84;5070896;28;20184;-63
2023/03/22 00:51:06;;;;;;;28.00;21.53;;;;;;;7.00;100.00;99851.69;5066175;28;20227;-63
2023/03/22 00:53:31;;;;;;;25.07;20.53;;;;;;;6.86;100.00;99836.97;5054256;28;20627;-63
2023/03/22 00:55:57;;;;;;;25.53;20.93;;;;;;;6.85;100.00;99842.16;5063529;28;20173;-63
2023/03/22 00:58:23;;;;;;;26.57;20.27;;;;;;;6.91;100.00;99840.16;5074075;28;20204;-63
2023/03/22 01:00:49;;;;;;;23.43;20.43;;;;;;;6.97;100.00;99833.94;5070375;28;20242;-63
2023/03/22 01:03:14;;;;;;;26.40;20.93;;;;;;;6.98;100.00;99832.22;5083188;28;20269;-62
2023/03/22 01:05:40;;;;;;;24.80;21.90;;;;;;;6.88;100.00;99827.47;5074600;28;20313;-62
2023/03/22 01:08:09;;;;;;;25.63;21.27;;;;;;;7.00;100.00;99827.88;5070750;28;20729;-63
2023/03/22 01:10:35;;;;;;;27.23;22.40;;;;;;;7.07;100.00;99824.09;5059789;28;20319;-63
2023/03/22 01:13:01;;;;;;;27.17;20.97;;;;;;;7.04;100.00;99827.63;5072223;28;20184;-67
2023/03/22 01:15:26;;;;;;;26.10;22.57;;;;;;;7.13;100.00;99820.47;5074229;28;20263;-62
2023/03/22 01:17:51;;;;;;;27.90;22.93;;;;;;;7.11;100.00;99818.78;5073711;28;20201;-62
2023/03/22 01:20:17;;;;;;;30.73;20.83;;;;;;;7.25;100.00;99817.34;5065896;28;20176;-61
2023/03/22 01:22:42;;;;;;;25.47;21.10;;;;;;;7.24;100.00;99818.25;5072040;28;20318;-62
2023/03/22 01:25:08;;;;;;;22.90;20.23;;;;;;;7.26;100.00;99811.34;5074362;28;20212;-62
2023/03/22 01:27:34;;;;;;;27.27;20.50;;;;;;;7.35;100.00;99815.22;5072498;28;20546;-62
2023/03/22 01:29:59;;;;;;;27.20;22.70;;;;;;;7.39;100.00;99820.13;5074006;28;20185;-62
2023/03/22 01:32:24;;;;;;;28.03;21.77;;;;;;;7.38;100.00;99807.38;5078351;28;20252;-62
2023/03/22 01:34:51;;;;;;;26.80;21.57;;;;;;;7.39;100.00;99806.47;5074405;28;20177;-62
2023/03/22 01:37:16;;;;;;;27.40;21.20;;;;;;;7.43;100.00;99808.03;5073656;28;20228;-64
2023/03/22 01:39:41;;;;;;;24.70;20.70;;;;;;;7.32;100.00;99805.94;5074056;28;20242;-63
2023/03/22 01:42:12;;;;;;;23.67;21.17;;;;;;;7.38;100.00;99797.16;5078142;28;20239;-62
2023/03/22 01:44:37;;;;;;;29.87;21.67;;;;;;;7.41;100.00;99804.69;5073655;28;20187;-62
2023/03/22 01:47:03;;;;;;;29.20;24.40;;;;;;;7.25;100.00;99804.56;5073446;28;20177;-62
2023/03/22 01:49:32;;;;;;;27.40;23.80;;;;;;;7.21;100.00;99795.38;5073874;28;20185;-62
2023/03/22 01:52:02;;;;;;;26.90;22.77;;;;;;;7.27;100.00;99797.66;5064411;28;20231;-63
2023/03/22 01:54:37;;;;;;;24.67;20.77;;;;;;;7.26;100.00;99796.00;5062514;28;20180;-63
2023/03/22 01:57:03;;;;;;;29.27;21.10;;;;;;;7.23;100.00;99784.19;5069894;28;20207;-62
2023/03/22 01:59:29;;;;;;;28.63;21.23;;;;;;;7.01;100.00;99779.19;5071496;28;20624;-62
2023/03/22 02:01:58;;;;;;;24.90;20.90;;;;;;;7.05;100.00;99785.00;5064580;28;20261;-64
2023/03/22 02:04:32;;;;;;;23.47;20.37;;;;;;;6.97;100.00;99779.41;5071170;28;20180;-62
2023/03/22 02:07:02;;;;;;;26.00;20.33;;;;;;;6.93;100.00;99781.25;5071965;28;20195;-62
2023/03/22 02:09:28;;;;;;;23.77;20.87;;;;;;;6.89;100.00;99780.56;5072911;28;20242;-64
2023/03/22 02:12:31;;;;;;;28.57;21.40;;;;;;;6.79;100.00;99781.88;5051897;28;20224;-65
2023/03/22 02:15:11;;;;;;;23.17;20.70;;;;;;;6.75;100.00;99781.19;5071621;28;20176;-61
2023/03/22 02:18:15;;;;;;;23.97;20.60;;;;;;;6.62;100.00;99782.59;5071527;28;20211;-62
2023/03/22 02:21:11;;;;;;;24.10;20.03;;;;;;;6.45;100.00;99773.94;5067518;28;20640;-62
2023/03/22 02:24:08;;;;;;;25.63;20.57;;;;;;;6.38;100.00;99774.28;5079074;28;20191;-61
2023/03/22 02:26:58;;;;;;;24.10;21.30;;;;;;;6.33;100.00;99776.19;5060191;28;20184;-63
2023/03/22 02:29:43;;;;;;;24.57;21.33;;;;;;;6.13;100.00;99770.19;5071344;28;20200;-63
2023/03/22 02:32:44;;;;;;;26.87;21.63;;;;;;;6.08;100.00;99777.22;5063073;28;20235;-62
2023/03/22 02:35:35;;;;;;;28.73;20.47;;;;;;;6.02;100.00;99777.47;5051800;28;20254;-62
2023/03/22 02:38:18;;;;;;;28.20;21.37;;;;;;;6.01;100.00;99781.72;5059663;28;20204;-61
2023/03/22 02:41:12;;;;;;;28.23;22.73;;;;;;;5.95;100.00;99777.69;5067499;28;20220;-62
2023/03/22 02:44:05;;;;;;;25.87;21.53;;;;;;;5.82;100.00;99776.50;5078530;28;20286;-65
2023/03/22 02:46:43;;;;;;;29.33;21.50;;;;;;;5.80;100.00;99771.47;5070754;28;20177;-62
2023/03/22 02:49:21;;;;;;;25.43;21.13;;;;;;;5.74;100.00;99770.88;5070610;28;20191;-64
2023/03/22 02:51:57;;;;;;;27.37;21.50;;;;;;;5.72;100.00;99765.84;5063375;28;20227;-62
2023/03/22 02:54:35;;;;;;;24.77;20.53;;;;;;;5.57;100.00;99764.72;5052286;28;20245;-63
2023/03/22 02:57:08;;;;;;;25.80;20.77;;;;;;;5.56;100.00;99775.81;5069823;28;20259;-62
2023/03/22 02:59:37;;;;;;;33.97;25.83;;;;;;;5.55;100.00;99774.16;5070777;28;20544;-62
2023/03/22 03:02:05;;;;;;;43.90;26.20;;;;;;;5.50;100.00;99776.06;5076806;28;20254;-61
2023/03/22 03:04:36;;;;;;;55.50;29.67;;;;;;;5.52;100.00;99776.84;5070873;28;20183;-62
2023/03/22 03:07:06;;;;;;;69.17;30.13;;;;;;;5.54;100.00;99772.47;5071034;28;20191;-62
2023/03/22 03:09:32;;;;;;;95.03;32.63;;;;;;;5.52;100.00;99773.44;5070307;28;20742;-62
2023/03/22 03:11:58;;;;;;;151.47;33.43;;;;;;;5.59;100.00;99767.22;5062475;28;20223;-62
2023/03/22 03:14:29;;;;;;;254.23;34.53;;;;;;;5.52;100.00;99753.88;5072038;28;20199;-63
2023/03/22 03:17:23;;;;;;;277.67;33.63;;;;;;;5.48;100.00;99765.06;5070710;28;20180;-62
2023/03/22 03:20:11;;;;;;;336.43;36.50;;;;;;;5.40;100.00;99752.63;5071921;28;20179;-62
2023/03/22 03:22:54;;;;;;;134.70;27.33;;;;;;;5.45;100.00;99755.00;5059717;28;20379;-62
2023/03/22 03:25:31;;;;;;;397.27;38.63;;;;;;;5.32;100.00;99747.81;5072467;28;20309;-63
2023/03/22 03:28:10;;;;;;;196.37;29.33;;;;;;;5.16;100.00;99751.84;5070446;28;20261;-62
2023/03/22 03:30:45;;;;;;;164.30;25.40;;;;;;;4.95;100.00;99753.44;5062766;28;20238;-62
2023/03/22 03:33:16;;;;;;;202.80;29.03;;;;;;;5.04;100.00;99759.97;5081083;28;20175;-62
2023/03/22 03:36:04;;;;;;;177.07;28.07;;;;;;;4.94;100.00;99746.72;5070558;28;20181;-63
2023/03/22 03:38:33;;;;;;;84.13;25.43;;;;;;;4.82;100.00;99747.97;5070079;28;20224;-63
2023/03/22 03:41:04;;;;;;;78.97;25.77;;;;;;;4.88;100.00;99747.75;5063068;28;20288;-61
2023/03/22 03:43:30;;;;;;;44.13;25.07;;;;;;;4.93;100.00;99745.03;5069596;28;20212;-70
2023/03/22 03:45:56;;;;;;;52.63;24.27;;;;;;;4.93;100.00;99750.97;5070602;28;20172;-62
2023/03/22 03:48:26;;;;;;;69.57;26.03;;;;;;;4.93;100.00;99742.50;5064887;28;20215;-67
2023/03/22 03:50:53;;;;;;;67.87;24.67;;;;;;;4.99;100.00;99742.28;5064246;28;20239;-62
2023/03/22 03:53:18;;;;;;;37.03;24.13;;;;;;;4.89;100.00;99741.78;5083711;28;20180;-62
2023/03/22 03:55:43;;;;;;;50.23;26.23;;;;;;;4.95;100.00;99736.47;5058403;28;20274;-61
2023/03/22 03:58:09;;;;;;;47.93;24.47;;;;;;;4.93;100.00;99732.31;5071165;28;20199;-71
2023/03/22 04:00:38;;;;;;;43.33;23.93;;;;;;;4.88;100.00;99729.91;5048332;28;20231;-62
2023/03/22 04:03:05;;;;;;;67.93;25.20;;;;;;;4.90;100.00;99722.22;5057539;28;20188;-61
2023/03/22 04:05:30;;;;;;;48.13;24.47;;;;;;;4.72;100.00;99733.94;5070252;28;20179;-63
2023/03/22 04:07:56;;;;;;;32.63;22.53;;;;;;;4.75;100.00;99726.16;5070997;28;20706;-62
2023/03/22 04:10:21;;;;;;;33.20;22.33;;;;;;;4.64;100.00;99727.38;5063415;28;20218;-73
2023/03/22 04:12:46;;;;;;;76.47;25.33;;;;;;;4.60;100.00;99730.09;5083458;28;20635;-63
2023/03/22 04:15:12;;;;;;;151.07;25.20;;;;;;;4.67;100.00;99726.44;5062169;28;20178;-62
2023/03/22 04:17:39;;;;;;;144.80;26.53;;;;;;;4.59;100.00;99728.41;5069779;28;20214;-62
2023/03/22 04:20:06;;;;;;;92.40;25.47;;;;;;;4.64;100.00;99723.97;5060003;28;20253;-62
2023/03/22 04:22:37;;;;;;;218.47;26.17;;;;;;;4.57;100.00;99732.75;5086687;28;20359;-62
2023/03/22 04:25:03;;;;;;;196.10;26.80;;;;;;;4.44;100.00;99730.66;5073777;28;20240;-61
2023/03/22 04:27:29;;;;;;;139.40;24.97;;;;;;;4.51;100.00;99729.53;5073319;28;20598;-61
2023/03/22 04:29:54;;;;;;;150.27;26.17;;;;;;;4.47;100.00;99727.97;5075119;28;20173;-61
2023/03/22 04:32:24;;;;;;;138.37;26.27;;;;;;;4.48;100.00;99721.19;5058530;28;20578;-61
2023/03/22 04:34:50;;;;;;;91.03;24.73;;;;;;;4.34;100.00;99722.50;5073837;28;20551;-61
2023/03/22 04:37:16;;;;;;;124.13;28.33;;;;;;;4.34;100.00;99716.53;5073471;28;20212;-61
2023/03/22 04:39:42;;;;;;;116.80;27.53;;;;;;;4.47;100.00;99717.78;5074826;28;20177;-61
2023/03/22 04:42:07;;;;;;;77.23;26.07;;;;;;;4.52;100.00;99730.38;5076239;28;20238;-63
2023/03/22 04:44:33;;;;;;;94.47;27.77;;;;;;;4.62;100.00;99723.22;5055343;28;20204;-62
2023/03/22 04:46:58;;;;;;;174.50;31.63;;;;;;;4.63;100.00;99725.72;5074857;28;20208;-64
2023/03/22 04:49:25;;;;;;;102.60;28.43;;;;;;;4.67;100.00;99723.88;5073330;28;20226;-61
2023/03/22 04:51:50;;;;;;;66.90;26.07;;;;;;;4.72;100.00;99718.63;5078395;28;20212;-62
2023/03/22 04:54:16;;;;;;;230.60;32.13;;;;;;;4.67;100.00;99719.63;5067360;28;20191;-61
2023/03/22 04:56:41;;;;;;;82.83;26.17;;;;;;;4.77;100.00;99722.66;5068824;28;20208;-65
2023/03/22 04:59:06;;;;;;;170.17;31.67;;;;;;;4.77;100.00;99720.09;5074657;28;20615;-64
2023/03/22 05:01:32;;;;;;;286.70;37.27;;;;;;;4.83;100.00;99724.97;5075933;28;20226;-62
2023/03/22 05:03:57;;;;;;;308.40;36.90;;;;;;;4.91;100.00;99731.53;5077771;28;20263;-61
2023/03/22 05:06:23;;;;;;;207.10;32.90;;;;;;;4.92;100.00;99725.53;5074043;28;20609;-62
2023/03/22 05:08:48;;;;;;;169.13;27.47;;;;;;;4.84;100.00;99731.75;5074276;28;20216;-61
2023/03/22 05:11:16;;;;;;;275.80;33.57;;;;;;;4.83;100.00;99730.06;5073107;28;20695;-62
2023/03/22 05:13:41;;;;;;;449.40;42.20;;;;;;;4.87;100.00;99730.81;5079673;28;20522;-61
2023/03/22 05:16:08;;;;;;;145.23;29.20;;;;;;;4.89;100.00;99736.69;5074273;28;20255;-63
2023/03/22 05:18:36;;;;;;;171.47;30.77;;;;;;;4.93;100.00;99740.78;5072545;28;20661;-61
2023/03/22 05:21:02;;;;;;;149.77;31.10;;;;;;;4.89;100.00;99740.94;5071241;28;20266;-65
2023/03/22 05:23:28;;;;;;;140.77;28.80;;;;;;;4.90;100.00;99734.94;5072186;28;20171;-62
2023/03/22 05:25:53;;;;;;;290.73;35.73;;;;;;;4.79;100.00;99736.19;5072574;28;20259;-62
2023/03/22 05:28:20;;;;;;;174.63;30.27;;;;;;;4.83;100.00;99730.06;5074165;28;20323;-62
2023/03/22 05:30:46;;;;;;;127.33;27.27;;;;;;;4.76;100.00;99725.28;5065266;28;20307;-62
2023/03/22 05:33:13;;;;;;;83.87;24.60;;;;;;;4.75;100.00;99719.34;5071897;28;20933;-61
2023/03/22 05:35:40;;;;;;;61.43;24.73;;;;;;;4.59;100.00;99723.31;5070610;28;20179;-62
2023/03/22 05:38:06;;;;;;;39.07;22.77;;;;;;;4.40;100.00;99721.44;5061084;28;20192;-61
2023/03/22 05:40:32;;;;;;;35.00;22.50;;;;;;;4.32;100.00;99719.16;5064728;28;20232;-62
2023/03/22 05:42:57;;;;;;;65.80;23.83;;;;;;;4.39;100.00;99722.34;5085076;28;20226;-64
2023/03/22 05:45:23;;;;;;;30.57;23.53;;;;;;;4.41;100.00;99730.72;5073789;28;20183;-63
2023/03/22 05:47:50;;;;;;;27.00;23.57;;;;;;;4.24;100.00;99727.94;5072328;28;20609;-61
2023/03/22 05:50:18;;;;;;;29.73;23.33;;;;;;;4.20;100.00;99722.97;5063430;28;20639;-60
2023/03/22 05:52:44;;;;;;;33.93;24.43;;;;;;;4.18;100.00;99729.81;5080883;28;20183;-65
2023/03/22 05:55:11;;;;;;;30.57;26.83;;;;;;;4.01;100.00;99724.47;5067738;28;20185;-61
2023/03/22 05:57:37;;;;;;;27.43;23.90;;;;;;;4.13;100.00;99713.03;5072298;28;20668;-60
2023/03/22 06:00:08;;;;;;;25.77;22.97;;;;;;;4.04;100.00;99698.91;5066576;28;20186;-65
2023/03/22 06:02:33;;;;;;;28.60;25.53;;;;;;;3.94;100.00;99700.09;5087726;28;20251;-62
2023/03/22 06:04:59;;;;;;;27.87;24.97;;;;;;;4.00;100.00;99692.25;5072978;28;20199;-62
2023/03/22 06:07:24;;;;;;;28.50;24.97;;;;;;;4.20;100.00;99702.59;5071768;28;20178;-61
2023/03/22 06:09:49;;;;;;;27.93;24.53;;;;;;;4.42;100.00;99706.94;5073090;28;20241;-61
2023/03/22 06:12:15;;;;;;;28.00;25.10;;;;;;;4.63;100.00;99719.81;5078027;28;20223;-61
2023/03/22 06:14:41;;;;;;;27.60;24.43;;;;;;;4.77;100.00;99720.09;5071346;28;20200;-60
2023/03/22 06:17:07;;;;;;;27.70;24.33;;;;;;;4.92;100.00;99723.00;5072884;28;20176;-63
2023/03/22 06:19:33;;;;;;;27.27;24.47;;;;;;;5.05;100.00;99720.81;5071485;28;20189;-62
2023/03/22 06:21:59;;;;;;;27.10;24.00;;;;;;;5.32;100.00;99724.00;5077100;28;20724;-61
2023/03/22 06:24:24;;;;;;;27.77;24.80;;;;;;;5.47;100.00;99722.59;5069113;28;20200;-64
2023/03/22 06:26:50;;;;;;;27.67;24.87;;;;;;;5.70;100.00;99726.78;5071394;28;20260;-61
2023/03/22 06:29:15;;;;;;;26.83;23.97;;;;;;;5.72;100.00;99726.72;5072254;28;20261;-62
2023/03/22 06:31:40;;;;;;;27.47;24.67;;;;;;;6.00;100.00;99735.84;5063730;28;20218;-64
2023/03/22 06:34:06;;;;;;;25.40;22.90;;;;;;;6.08;100.00;99733.81;5074483;28;20177;-62
2023/03/22 06:36:31;;;;;;;23.03;20.80;;;;;;;6.29;100.00;99729.50;5071746;28;20579;-62
2023/03/22 06:38:57;;;;;;;23.57;21.17;;;;;;;6.35;100.00;99729.25;5072292;28;20211;-62
2023/03/22 06:41:23;;;;;;;25.70;21.07;;;;;;;6.38;100.00;99731.66;5062926;28;20675;-63
2023/03/22 06:43:48;;;;;;;21.73;19.63;;;;;;;6.58;100.00;99729.97;5076365;28;20180;-62
2023/03/22 06:46:14;;;;;;;21.80;19.70;;;;;;;6.39;100.00;99735.06;5070619;28;20180;-64
2023/03/22 06:48:39;;;;;;;21.33;19.07;;;;;;;6.51;100.00;99736.25;5071652;28;20586;-63
2023/03/22 06:51:05;;;;;;;21.27;19.27;;;;;;;6.89;100.00;99741.38;5069239;28;20289;-62
2023/03/22 06:53:30;;;;;;;20.57;18.70;;;;;;;7.11;100.00;99756.59;5079009;28;20260;-62
2023/03/22 06:55:55;;;;;;;20.17;18.07;;;;;;;7.02;100.00;99741.66;5071940;28;20628;-61
2023/03/22 06:58:21;;;;;;;20.33;18.53;;;;;;;7.12;100.00;99745.47;5071753;28;20673;-66
2023/03/22 07:00:46;;;;;;;20.40;18.50;;;;;;;7.41;100.00;99740.72;5067121;28;20219;-62
2023/03/22 07:03:11;;;;;;;20.93;19.03;;;;;;;7.41;100.00;99733.03;5079807;28;20169;-62
2023/03/22 07:05:37;;;;;;;19.57;17.67;;;;;;;7.96;100.00;99737.22;5070377;28;20499;-63
2023/03/22 07:08:02;;;;;;;16.80;15.37;;;;;;;9.25;100.00;99731.44;5071015;28;20216;-61
2023/03/22 07:10:28;;;;;;;15.77;14.40;;;;;;;9.91;100.00;99726.06;5064193;28;20318;-62
2023/03/22 07:12:54;;;;;;;10.80;9.07;;;;;;;9.72;100.00;99721.16;5060611;28;20225;-62
2023/03/22 07:15:23;;;;;;;9.07;8.17;;;;;;;10.13;100.00;99715.38;5071993;28;20591;-62
2023/03/22 07:17:51;;;;;;;8.00;7.20;;;;;;;10.21;100.00;99718.31;5071526;28;20208;-62
2023/03/22 07:20:18;;;;;;;10.63;7.40;;;;;;;10.37;100.00;99712.28;5061449;28;20184;-62
2023/03/22 07:22:43;;;;;;;6.90;6.20;;;;;;;10.45;100.00;99715.22;5058257;28;20173;-61
2023/03/22 07:25:09;;;;;;;6.60;5.90;;;;;;;10.91;100.00;99709.00;5069950;28;20589;-61
2023/03/22 07:27:35;;;;;;;6.67;6.03;;;;;;;11.28;100.00;99704.13;5070984;28;20200;-61
2023/03/22 07:30:01;;;;;;;6.70;5.73;;;;;;;11.94;100.00;99704.16;5070627;28;20264;-62
2023/03/22 07:32:26;;;;;;;6.63;5.33;;;;;;;11.68;100.00;99698.94;5075924;28;20304;-67
2023/03/22 07:34:51;;;;;;;5.50;5.00;;;;;;;11.79;100.00;99700.84;5070957;28;20180;-63
2023/03/22 07:37:16;;;;;;;7.53;5.50;;;;;;;11.78;100.00;99699.19;5069133;28;20195;-63
2023/03/22 07:39:42;;;;;;;9.33;5.60;;;;;;;12.09;100.00;99704.91;5071556;28;20180;-63
2023/03/22 07:42:08;;;;;;;6.27;5.10;;;;;;;12.67;100.00;99697.50;5064189;28;20675;-63
2023/03/22 07:44:33;;;;;;;7.53;4.90;;;;;;;13.21;100.00;99701.47;5068283;28;20173;-62
2023/03/22 07:46:59;;;;;;;7.57;4.60;;;;;;;14.27;100.00;99691.97;5071482;28;20607;-63
2023/03/22 07:49:25;;;;;;;8.57;5.17;;;;;;;16.16;100.00;99702.88;5070840;28;20180;-64
2023/03/22 07:51:50;;;;;;;6.10;4.97;;;;;;;16.78;100.00;99708.84;5053494;28;20224;-62
2023/03/22 07:54:16;;;;;;;8.10;4.77;;;;;;;17.03;100.00;99703.28;5064609;28;20181;-64
2023/03/22 07:56:43;;;;;;;6.70;4.40;;;;;;;17.33;100.00;99710.16;5065409;28;20208;-63
2023/03/22 07:59:09;;;;;;;5.63;4.00;;;;;;;17.48;100.00;99700.16;5071302;28;20196;-64
2023/03/22 08:01:34;;;;;;;4.07;3.67;;;;;;;17.34;99.69;99708.38;5061753;28;20227;-63
2023/03/22 08:03:59;;;;;;;5.53;3.83;;;;;;;17.33;100.00;99707.56;5074757;28;20279;-63
2023/03/22 08:06:24;;;;;;;9.13;3.93;;;;;;;18.34;95.10;99701.88;5070935;28;20669;-67
2023/03/22 08:08:50;;;;;;;5.10;3.97;;;;;;;19.35;86.68;99716.66;5070993;28;20220;-65
2023/03/22 08:11:15;;;;;;;5.93;4.13;;;;;;;19.36;82.80;99717.47;5069659;28;20558;-65
2023/03/22 08:13:40;;;;;;;5.97;3.57;;;;;;;18.40;89.38;99713.50;5076863;28;20210;-64
2023/03/22 08:16:06;;;;;;;5.03;3.83;;;;;;;18.32;88.83;99718.59;5068805;28;20659;-62
2023/03/22 08:18:31;;;;;;;6.20;3.73;;;;;;;17.27;96.41;99718.50;5077778;28;20230;-62
2023/03/22 08:20:58;;;;;;;5.20;3.73;;;;;;;16.80;100.00;99715.69;5067918;28;20231;-62
2023/03/22 08:23:25;;;;;;;6.47;3.60;;;;;;;16.30;100.00;99715.50;5069451;28;20691;-62
2023/03/22 08:25:51;;;;;;;5.57;3.47;;;;;;;15.59;100.00;99712.75;5069466;28;20188;-63
2023/03/22 08:28:17;;;;;;;8.53;4.07;;;;;;;15.47;100.00;99704.22;5069636;28;20639;-62
2023/03/22 08:30:44;;;;;;;3.80;3.47;;;;;;;15.24;100.00;99706.91;5043426;28;20239;-63
2023/03/22 08:33:10;;;;;;;7.77;3.87;;;;;;;14.56;100.00;99701.84;5064301;28;20596;-66
2023/03/22 08:35:35;;;;;;;6.13;3.93;;;;;;;14.36;100.00;99695.63;5071147;28;20194;-64
2023/03/22 08:38:01;;;;;;;6.40;3.73;;;;;;;14.40;100.00;99691.88;5070893;28;20200;-63
2023/03/22 08:40:26;;;;;;;6.40;3.60;;;;;;;14.39;100.00;99689.38;5063646;28;20253;-63
2023/03/22 08:42:51;;;;;;;5.17;3.50;;;;;;;14.69;100.00;99683.63;5082842;28;20683;-63
2023/03/22 08:45:17;;;;;;;8.10;3.90;;;;;;;15.01;100.00;99678.47;5066051;28;20180;-61
2023/03/22 08:47:43;;;;;;;6.13;3.57;;;;;;;15.08;100.00;99683.16;5062416;28;20180;-62
2023/03/22 08:50:10;;;;;;;5.63;3.70;;;;;;;15.28;100.00;99684.16;5059529;28;20264;-62
2023/03/22 08:52:35;;;;;;;4.80;3.43;;;;;;;15.23;100.00;99681.94;5084549;28;20214;-64
2023/03/22 08:55:00;;;;;;;4.20;2.83;;;;;;;14.76;100.00;99684.78;5057495;28;20189;-63
2023/03/22 08:57:26;;;;;;;5.23;2.97;;;;;;;14.79;100.00;99678.56;5070466;28;20169;-63
2023/03/22 08:59:52;;;;;;;4.93;2.97;;;;;;;14.64;100.00;99681.34;5070572;28;20623;-62
2023/03/22 09:02:18;;;;;;;4.03;2.67;;;;;;;14.61;100.00;99681.63;5059553;28;20315;-63
2023/03/22 09:04:43;;;;;;;3.87;2.63;;;;;;;14.48;100.00;99673.16;5065194;28;20276;-57
2023/03/22 09:07:08;;;;;;;4.07;2.50;;;;;;;13.99;100.00;99675.97;5069630;28;20238;-56
2023/03/22 09:09:34;;;;;;;5.40;2.77;;;;;;;14.08;100.00;99671.88;5072134;28;20301;-56
2023/03/22 09:11:59;;;;;;;9.10;2.73;;;;;;;14.11;100.00;99666.44;5065257;28;20216;-64
2023/03/22 09:14:24;;;;;;;5.87;2.90;;;;;;;14.45;100.00;99671.63;5072202;28;20188;-64
2023/03/22 09:16:50;;;;;;;3.07;2.07;;;;;;;14.26;100.00;99666.22;5073547;28;20185;-67
2023/03/22 09:19:15;;;;;;;4.33;2.67;;;;;;;14.53;100.00;99658.91;5074175;28;20212;-64
2023/03/22 09:21:41;;;;;;;5.10;2.40;;;;;;;14.71;100.00;99658.44;5075864;28;20224;-64
2023/03/22 09:24:07;;;;;;;3.43;2.33;;;;;;;14.80;100.00;99643.97;5065418;28;20198;-64
2023/03/22 09:26:32;;;;;;;5.20;2.30;;;;;;;14.30;100.00;99644.34;5072193;28;20173;-63
2023/03/22 09:28:57;;;;;;;5.27;2.23;;;;;;;14.26;100.00;99648.13;5073662;28;20533;-63
2023/03/22 09:31:23;;;;;;;4.57;2.27;;;;;;;14.05;100.00;99641.06;5074118;28;20273;-64
2023/03/22 09:33:48;;;;;;;4.03;3.60;;;;;;;14.04;100.00;99640.25;5078052;28;20666;-64
2023/03/22 09:36:13;;;;;;;3.07;1.93;;;;;;;13.98;100.00;99640.72;5072617;28;20185;-63
2023/03/22 09:38:40;;;;;;;4.23;2.40;;;;;;;14.67;100.00;99634.56;5072584;28;20790;-62
2023/03/22 09:41:11;;;;;;;3.70;2.50;;;;;;;14.34;100.00;99631.06;5063206;28;20441;-64
2023/03/22 09:43:48;;;;;;;9.57;2.27;;;;;;;14.14;100.00;99632.63;5071927;28;20176;-64
2023/03/22 09:46:19;;;;;;;5.40;1.90;;;;;;;15.10;100.00;99625.13;5073332;28;20307;-63
2023/03/22 09:48:48;;;;;;;3.80;2.30;;;;;;;16.63;100.00;99632.25;5071264;28;20475;-63
2023/03/22 09:51:50;;;;;;;6.00;2.00;;;;;;;18.50;89.48;99617.13;5055007;28;20341;-64
2023/03/22 09:54:20;;;;;;;3.60;1.80;;;;;;;18.74;83.26;99623.53;5010427;28;20187;-65
2023/03/22 09:57:07;;;;;;;5.17;2.40;;;;;;;18.31;83.46;99618.06;4993705;28;20733;-64
2023/03/22 09:59:55;;;;;;;3.93;2.17;;;;;;;17.30;93.16;99624.63;4994339;28;20202;-62
2023/03/22 10:03:02;;;;;;;4.07;2.37;;;;;;;16.51;98.59;99609.97;4997930;28;20254;-73
2023/03/22 10:05:39;;;;;;;4.13;2.10;;;;;;;17.35;97.14;99611.22;4930994;28;20650;-63
2023/03/22 10:08:24;;;;;;;4.03;1.83;;;;;;;19.66;79.99;99603.25;4993905;28;20253;-63
2023/03/22 10:10:51;;;;;;;2.90;1.60;;;;;;;21.10;64.96;99597.09;4984255;28;20253;-66
2023/03/22 10:13:35;;;;;;;2.97;1.80;;;;;;;23.07;50.79;99606.91;5007762;28;20198;-62
2023/03/22 10:16:03;;;;;;;1.50;1.33;;;;;;;22.49;50.24;99616.97;4993998;28;20190;-63
2023/03/22 10:18:34;;;;;;;2.15;1.80;;;;;;;22.46;51.18;99614.72;4990995;28;20306;-63
2023/03/22 10:21:00;;;;;;;4.25;1.90;;;;;;;20.51;58.60;99612.06;4984291;28;20682;-65
2023/03/22 10:23:41;;;;;;;2.60;1.47;;;;;;;18.94;74.06;99619.00;5010477;28;20262;-64
2023/03/22 10:26:07;;;;;;;2.83;1.60;;;;;;;18.62;74.09;99615.94;4993803;28;20263;-64
2023/03/22 10:28:32;;;;;;;4.07;1.93;;;;;;;19.86;68.32;99606.47;5041619;28;20682;-63
2023/03/22 10:30:58;;;;;;;3.70;1.90;;;;;;;20.09;63.37;99621.56;5069679;28;20456;-63
2023/03/22 10:33:36;;;;;;;3.97;1.50;;;;;;;19.13;71.06;99607.63;5080250;28;20181;-63
2023/03/22 10:36:04;;;;;;;2.07;1.60;;;;;;;18.18;80.79;99614.03;5070804;28;20639;-62
2023/03/22 10:38:33;;;;;;;3.57;1.60;;;;;;;18.16;83.97;99607.28;5071124;28;20204;-62
2023/03/22 10:41:01;;;;;;;3.43;1.87;;;;;;;17.73;87.80;99606.91;5064725;28;20228;-63
2023/03/22 10:43:36;;;;;;;1.90;1.47;;;;;;;17.54;87.36;99613.00;5074321;28;20185;-62
2023/03/22 10:46:06;;;;;;;1.83;1.53;;;;;;;17.55;91.12;99609.41;5069444;28;20180;-63
2023/03/22 10:48:40;;;;;;;3.03;1.33;;;;;;;17.35;87.04;99603.44;5070704;28;20180;-63
2023/03/22 10:51:06;;;;;;;3.20;1.50;;;;;;;17.21;83.02;99604.69;5063968;28;20608;-63
2023/03/22 10:53:50;;;;;;;2.53;1.80;;;;;;;16.72;84.24;99608.09;5068319;28;20180;-63
2023/03/22 10:56:19;;;;;;;4.03;3.23;;;;;;;16.34;89.22;99617.47;5061844;28;20176;-64
2023/03/22 10:58:45;;;;;;;2.40;1.30;;;;;;;16.41;89.44;99609.94;5071267;28;20212;-63
2023/03/22 11:01:13;;;;;;;2.43;1.40;;;;;;;16.45;86.41;99611.34;5070585;28;20232;-59
2023/03/22 11:03:41;;;;;;;2.30;1.40;;;;;;;16.80;86.56;99604.00;5069276;28;20475;-60
2023/03/22 11:06:16;;;;;;;2.30;1.30;;;;;;;16.71;87.84;99605.66;5071582;28;20179;-59
2023/03/22 11:08:46;;;;;;;2.57;1.50;;;;;;;17.07;87.47;99603.34;5070641;28;20469;-60
2023/03/22 11:11:28;;;;;;;2.30;1.40;;;;;;;17.09;86.67;99602.25;5062558;28;20713;-61
2023/03/22 11:14:38;;;;;;;3.43;1.40;;;;;;;16.69;83.79;99604.94;5063637;28;20188;-60
2023/03/22 11:17:08;;;;;;;4.50;1.50;;;;;;;16.51;83.10;99600.41;5044413;28;20218;-60
2023/03/22 11:19:37;;;;;;;1.80;1.50;;;;;;;16.41;85.10;99597.81;5069758;28;20258;-59
2023/03/22 11:22:21;;;;;;;2.97;1.40;;;;;;;16.45;83.64;99603.56;5047011;28;20231;-59
2023/03/22 11:24:47;;;;;;;2.43;1.73;;;;;;;16.45;87.64;99601.75;5065356;28;20655;-59
2023/03/22 11:27:20;;;;;;;2.00;1.40;;;;;;;16.25;86.51;99597.50;5065099;28;20181;-58
2023/03/22 11:29:51;;;;;;;2.78;1.75;;;;;;;16.48;80.49;99597.28;5070395;28;20761;-61